XNO171 DTNH-EGGD
Flight info
| Callsign | XNO171 |
|---|---|
| Flight time | 2h 49m |
| Altitude | 24000 |
| Route | VAXAL1C VAXAL A411 TUC/N0439F380 UA725 OSMAR DCT PIRIX DCT INDUM DCT UPDUT DCT CORSI DCT OMEDA DCT MERLU DCT PIGOS DCT BARSO DCT OKTET DCT GIPNO DCT BULOL DCT IDAVO DCT BAGBI DCT SIZZA DCT LAULY DCT BRY DCT CLM DCT KOPOR DCT KESAX DCT KUNAV T421 ICTAM L179 SAWPE |
| Aircraft | A20N/M-SDE2E3FGHIRWXY/LB1 |
Departure
| Time | 2026-04-21 09:20 |
|---|---|
| Airport | Enfidha - Hammamet International Airport (DTNH) |
Arrival
| Time | 2026-04-21 12:10 |
|---|---|
| Airport | Bristol Airport (EGGD) |
| Time | Latitude | Longitude | Altitude | Speed | Heading |
|---|---|---|---|---|---|
| 2026-04-21 08:49 | 36.08257 | 10.43674 | 25 ft | 0 kts | 76° |
| 2026-04-21 09:08 | 36.08256 | 10.43671 | 25 ft | 1 kts | 79° |
| 2026-04-21 09:08 | 36.08255 | 10.43658 | 28 ft | 2 kts | 79° |
| 2026-04-21 09:08 | 36.08253 | 10.43643 | 26 ft | 2 kts | 79° |
| 2026-04-21 09:09 | 36.08250 | 10.43622 | 29 ft | 2 kts | 83° |
| 2026-04-21 09:09 | 36.08246 | 10.43601 | 27 ft | 2 kts | 62° |
| 2026-04-21 09:09 | 36.08236 | 10.43576 | 27 ft | 5 kts | 67° |
| 2026-04-21 09:09 | 36.08228 | 10.43550 | 27 ft | 0 kts | 81° |
| 2026-04-21 09:10 | 36.08226 | 10.43549 | 26 ft | 0 kts | 140° |
| 2026-04-21 09:13 | 36.08224 | 10.43550 | 26 ft | 2 kts | 140° |
| 2026-04-21 09:13 | 36.08198 | 10.43587 | 27 ft | 10 kts | 134° |
| 2026-04-21 09:13 | 36.08127 | 10.43674 | 27 ft | 18 kts | 133° |
| 2026-04-21 09:13 | 36.08022 | 10.43789 | 25 ft | 13 kts | 151° |
| 2026-04-21 09:14 | 36.07979 | 10.43802 | 26 ft | 1 kts | 194° |
| 2026-04-21 09:14 | 36.07945 | 10.43795 | 25 ft | 9 kts | 188° |
| 2026-04-21 09:14 | 36.07851 | 10.43791 | 25 ft | 17 kts | 179° |
| 2026-04-21 09:14 | 36.07751 | 10.43722 | 25 ft | 19 kts | 270° |
| 2026-04-21 09:15 | 36.07749 | 10.43531 | 25 ft | 25 kts | 270° |
| 2026-04-21 09:15 | 36.07750 | 10.43287 | 25 ft | 31 kts | 271° |
| 2026-04-21 09:15 | 36.07753 | 10.43029 | 26 ft | 26 kts | 272° |
| 2026-04-21 09:15 | 36.07754 | 10.42782 | 26 ft | 32 kts | 269° |
| 2026-04-21 09:16 | 36.07756 | 10.42503 | 27 ft | 30 kts | 270° |
| 2026-04-21 09:16 | 36.07758 | 10.42283 | 27 ft | 28 kts | 275° |
| 2026-04-21 09:16 | 36.07752 | 10.42072 | 27 ft | 21 kts | 250° |
| 2026-04-21 09:16 | 36.07702 | 10.42038 | 27 ft | 0 kts | 175° |
| 2026-04-21 09:17 | 36.07700 | 10.42039 | 27 ft | 1 kts | 175° |
| 2026-04-21 09:17 | 36.07665 | 10.42042 | 27 ft | 9 kts | 175° |
| 2026-04-21 09:18 | 36.07589 | 10.42088 | 28 ft | 14 kts | 118° |
| 2026-04-21 09:18 | 36.07584 | 10.42126 | 28 ft | 0 kts | 84° |
| 2026-04-21 09:19 | 36.07586 | 10.42154 | 28 ft | 8 kts | 86° |
| 2026-04-21 09:19 | 36.07586 | 10.42157 | 28 ft | 0 kts | 91° |
| 2026-04-21 09:19 | 36.07585 | 10.42213 | 28 ft | 26 kts | 89° |
| 2026-04-21 09:20 | 36.07583 | 10.42742 | 27 ft | 95 kts | 91° |
| 2026-04-21 09:20 | 36.07577 | 10.43776 | 25 ft | 146 kts | 90° |
| 2026-04-21 09:20 | 36.07574 | 10.45132 | 384 ft | 155 kts | 90° |
| 2026-04-21 09:20 | 36.07794 | 10.46405 | 852 ft | 161 kts | 48° |
| 2026-04-21 09:21 | 36.08816 | 10.46901 | 1199 ft | 168 kts | 347° |
| 2026-04-21 09:21 | 36.09928 | 10.46494 | 1798 ft | 169 kts | 341° |
| 2026-04-21 09:21 | 36.11075 | 10.46029 | 2277 ft | 179 kts | 339° |
| 2026-04-21 09:21 | 36.12301 | 10.45569 | 2765 ft | 193 kts | 346° |
| 2026-04-21 09:22 | 36.13711 | 10.45555 | 3242 ft | 213 kts | 5° |
| 2026-04-21 09:22 | 36.15221 | 10.45893 | 3702 ft | 234 kts | 8° |
| 2026-04-21 09:22 | 36.16882 | 10.46317 | 4246 ft | 254 kts | 9° |
| 2026-04-21 09:22 | 36.18661 | 10.46834 | 4844 ft | 272 kts | 11° |
| 2026-04-21 09:23 | 36.20506 | 10.47446 | 5717 ft | 276 kts | 12° |
| 2026-04-21 09:23 | 36.22373 | 10.48071 | 6655 ft | 279 kts | 12° |
| 2026-04-21 09:23 | 36.24250 | 10.48680 | 7563 ft | 280 kts | 11° |
| 2026-04-21 09:23 | 36.26146 | 10.49279 | 8487 ft | 283 kts | 11° |
| 2026-04-21 09:24 | 36.28087 | 10.49647 | 9386 ft | 281 kts | 356° |
| 2026-04-21 09:24 | 36.30009 | 10.49284 | 10226 ft | 281 kts | 339° |
| 2026-04-21 09:24 | 36.31899 | 10.48401 | 10598 ft | 302 kts | 336° |
| 2026-04-21 09:24 | 36.33664 | 10.47530 | 10814 ft | 322 kts | 336° |
| 2026-04-21 09:25 | 36.35776 | 10.46492 | 11231 ft | 339 kts | 336° |
| 2026-04-21 09:25 | 36.38033 | 10.45390 | 11469 ft | 362 kts | 336° |
| 2026-04-21 09:25 | 36.40461 | 10.44221 | 11741 ft | 384 kts | 337° |
| 2026-04-21 09:25 | 36.42985 | 10.43036 | 12490 ft | 391 kts | 337° |
| 2026-04-21 09:26 | 36.45552 | 10.41838 | 13355 ft | 396 kts | 337° |
| 2026-04-21 09:26 | 36.48128 | 10.40633 | 14162 ft | 401 kts | 337° |
| 2026-04-21 09:26 | 36.50758 | 10.39399 | 15040 ft | 403 kts | 337° |
| 2026-04-21 09:26 | 36.53394 | 10.38158 | 15907 ft | 406 kts | 336° |
| 2026-04-21 09:27 | 36.56042 | 10.36910 | 16699 ft | 406 kts | 336° |
| 2026-04-21 09:27 | 36.58665 | 10.35671 | 17177 ft | 413 kts | 336° |
| 2026-04-21 09:27 | 36.61357 | 10.34398 | 17774 ft | 416 kts | 336° |
| 2026-04-21 09:27 | 36.64067 | 10.33116 | 18366 ft | 418 kts | 336° |
| 2026-04-21 09:28 | 36.66798 | 10.31823 | 18878 ft | 421 kts | 336° |
| 2026-04-21 09:28 | 36.69556 | 10.30516 | 19397 ft | 424 kts | 336° |
| 2026-04-21 09:28 | 36.72322 | 10.29205 | 19905 ft | 427 kts | 336° |
| 2026-04-21 09:28 | 36.75109 | 10.27882 | 20399 ft | 430 kts | 336° |
| 2026-04-21 09:29 | 36.77916 | 10.26548 | 20877 ft | 433 kts | 336° |
| 2026-04-21 09:29 | 36.80702 | 10.25224 | 21366 ft | 436 kts | 336° |
| 2026-04-21 09:29 | 36.83546 | 10.23871 | 21826 ft | 439 kts | 336° |
| 2026-04-21 09:29 | 36.86462 | 10.22693 | 22284 ft | 444 kts | 342° |
| 2026-04-21 09:30 | 36.89473 | 10.21774 | 22741 ft | 447 kts | 343° |
| 2026-04-21 09:30 | 36.92506 | 10.20838 | 23199 ft | 450 kts | 343° |
| 2026-04-21 09:30 | 36.95558 | 10.19888 | 23609 ft | 453 kts | 343° |
| 2026-04-21 09:30 | 36.98616 | 10.18934 | 23984 ft | 455 kts | 343° |
| 2026-04-21 09:31 | 37.01702 | 10.17972 | 24360 ft | 457 kts | 343° |
| 2026-04-21 09:31 | 37.04792 | 10.17009 | 24716 ft | 459 kts | 343° |
| 2026-04-21 09:31 | 37.07865 | 10.16052 | 25059 ft | 461 kts | 343° |
| 2026-04-21 09:31 | 37.10979 | 10.15081 | 25397 ft | 463 kts | 343° |
| 2026-04-21 09:32 | 37.14120 | 10.14101 | 25729 ft | 465 kts | 343° |
| 2026-04-21 09:32 | 37.17272 | 10.13116 | 26026 ft | 467 kts | 343° |
| 2026-04-21 09:32 | 37.20430 | 10.12129 | 26295 ft | 469 kts | 343° |
| 2026-04-21 09:32 | 37.23603 | 10.11136 | 26525 ft | 470 kts | 343° |
| 2026-04-21 09:33 | 37.26778 | 10.10142 | 26731 ft | 472 kts | 343° |
| 2026-04-21 09:33 | 37.29967 | 10.09143 | 26913 ft | 473 kts | 343° |
| 2026-04-21 09:33 | 37.33133 | 10.08149 | 27097 ft | 474 kts | 343° |
| 2026-04-21 09:33 | 37.36290 | 10.07159 | 27309 ft | 473 kts | 343° |
| 2026-04-21 09:34 | 37.39483 | 10.06155 | 27520 ft | 473 kts | 343° |
| 2026-04-21 09:34 | 37.42668 | 10.05153 | 27741 ft | 472 kts | 343° |
| 2026-04-21 09:34 | 37.45853 | 10.04147 | 27967 ft | 471 kts | 342° |
| 2026-04-21 09:34 | 37.49025 | 10.03143 | 28178 ft | 470 kts | 342° |
| 2026-04-21 09:35 | 37.52206 | 10.02135 | 28383 ft | 470 kts | 342° |
| 2026-04-21 09:35 | 37.55371 | 10.01132 | 28596 ft | 469 kts | 342° |
| 2026-04-21 09:35 | 37.58488 | 10.00143 | 28816 ft | 468 kts | 342° |
| 2026-04-21 09:35 | 37.61691 | 9.99126 | 29018 ft | 468 kts | 342° |
| 2026-04-21 09:36 | 37.64793 | 9.98140 | 29215 ft | 467 kts | 342° |
| 2026-04-21 09:36 | 37.67942 | 9.97138 | 29419 ft | 466 kts | 342° |
| 2026-04-21 09:36 | 37.71093 | 9.96136 | 29621 ft | 466 kts | 342° |
| 2026-04-21 09:36 | 37.74227 | 9.95137 | 29838 ft | 465 kts | 342° |
| 2026-04-21 09:37 | 37.77363 | 9.94138 | 30063 ft | 464 kts | 342° |
| 2026-04-21 09:37 | 37.80488 | 9.93143 | 30258 ft | 463 kts | 342° |
| 2026-04-21 09:37 | 37.83615 | 9.92148 | 30472 ft | 462 kts | 342° |
| 2026-04-21 09:37 | 37.86723 | 9.91158 | 30692 ft | 461 kts | 342° |
| 2026-04-21 09:38 | 37.89794 | 9.90178 | 30915 ft | 460 kts | 342° |
| 2026-04-21 09:38 | 37.92901 | 9.89186 | 31145 ft | 459 kts | 342° |
| 2026-04-21 09:38 | 37.95999 | 9.88196 | 31372 ft | 458 kts | 342° |
| 2026-04-21 09:38 | 37.99082 | 9.87210 | 31604 ft | 457 kts | 342° |
| 2026-04-21 09:39 | 38.02168 | 9.86221 | 31832 ft | 456 kts | 342° |
| 2026-04-21 09:39 | 38.05241 | 9.85237 | 32041 ft | 455 kts | 342° |
| 2026-04-21 09:39 | 38.08307 | 9.84252 | 32253 ft | 454 kts | 342° |
| 2026-04-21 09:39 | 38.11373 | 9.83267 | 32423 ft | 454 kts | 342° |
| 2026-04-21 09:40 | 38.14390 | 9.82299 | 32618 ft | 453 kts | 342° |
| 2026-04-21 09:40 | 38.17444 | 9.81318 | 32830 ft | 452 kts | 342° |
| 2026-04-21 09:40 | 38.20491 | 9.80338 | 33038 ft | 451 kts | 341° |
| 2026-04-21 09:40 | 38.23531 | 9.79359 | 33236 ft | 451 kts | 341° |
| 2026-04-21 09:41 | 38.26573 | 9.78379 | 33435 ft | 450 kts | 341° |
| 2026-04-21 09:41 | 38.29604 | 9.77406 | 33614 ft | 449 kts | 341° |
| 2026-04-21 09:41 | 38.32627 | 9.76438 | 33796 ft | 448 kts | 341° |
| 2026-04-21 09:41 | 38.35411 | 9.75546 | 33965 ft | 448 kts | 341° |
| 2026-04-21 09:42 | 38.38386 | 9.74592 | 34108 ft | 447 kts | 341° |
| 2026-04-21 09:42 | 38.41402 | 9.73623 | 34237 ft | 447 kts | 341° |
| 2026-04-21 09:42 | 38.44428 | 9.72650 | 34369 ft | 447 kts | 341° |
| 2026-04-21 09:42 | 38.47447 | 9.71678 | 34486 ft | 447 kts | 341° |
| 2026-04-21 09:43 | 38.50461 | 9.70706 | 34617 ft | 447 kts | 341° |
| 2026-04-21 09:43 | 38.53473 | 9.69735 | 34740 ft | 447 kts | 341° |
| 2026-04-21 09:43 | 38.56488 | 9.68762 | 34854 ft | 447 kts | 341° |
| 2026-04-21 09:43 | 38.59498 | 9.67790 | 34975 ft | 447 kts | 341° |
| 2026-04-21 09:44 | 38.62476 | 9.66827 | 35095 ft | 446 kts | 341° |
| 2026-04-21 09:44 | 38.65488 | 9.65852 | 35211 ft | 446 kts | 341° |
| 2026-04-21 09:44 | 38.71503 | 9.63903 | 35412 ft | 446 kts | 341° |
| 2026-04-21 09:45 | 38.74508 | 9.62928 | 35524 ft | 446 kts | 341° |
| 2026-04-21 09:45 | 38.77516 | 9.61951 | 35634 ft | 446 kts | 341° |
| 2026-04-21 09:45 | 38.80523 | 9.60973 | 35752 ft | 445 kts | 341° |
| 2026-04-21 09:45 | 38.83530 | 9.59995 | 35834 ft | 446 kts | 341° |
| 2026-04-21 09:46 | 38.89500 | 9.58050 | 36027 ft | 445 kts | 341° |
| 2026-04-21 09:46 | 38.95486 | 9.56047 | 36216 ft | 445 kts | 341° |
| 2026-04-21 09:47 | 39.01467 | 9.53999 | 36387 ft | 444 kts | 341° |
| 2026-04-21 09:47 | 39.07439 | 9.51961 | 36566 ft | 444 kts | 341° |
| 2026-04-21 09:48 | 39.13364 | 9.49939 | 36727 ft | 444 kts | 341° |
| 2026-04-21 09:48 | 39.19329 | 9.47901 | 36923 ft | 443 kts | 341° |
| 2026-04-21 09:49 | 39.25296 | 9.45859 | 37081 ft | 443 kts | 341° |
| 2026-04-21 09:49 | 39.31247 | 9.43817 | 37259 ft | 443 kts | 341° |
| 2026-04-21 09:50 | 39.35199 | 9.42461 | 37372 ft | 442 kts | 341° |
| 2026-04-21 09:50 | 39.43111 | 9.39741 | 37562 ft | 442 kts | 341° |
| 2026-04-21 09:51 | 39.49040 | 9.37697 | 37703 ft | 442 kts | 341° |
| 2026-04-21 09:51 | 39.54979 | 9.35646 | 37846 ft | 441 kts | 341° |
| 2026-04-21 09:52 | 39.60866 | 9.33610 | 37965 ft | 440 kts | 341° |
| 2026-04-21 09:52 | 39.66778 | 9.31561 | 37968 ft | 440 kts | 341° |
| 2026-04-21 09:53 | 39.72694 | 9.29507 | 37967 ft | 440 kts | 341° |
| 2026-04-21 09:53 | 39.78605 | 9.27452 | 37969 ft | 439 kts | 341° |
| 2026-04-21 09:54 | 39.84502 | 9.25397 | 37973 ft | 439 kts | 341° |
| 2026-04-21 09:54 | 39.90367 | 9.23350 | 37975 ft | 439 kts | 341° |
| 2026-04-21 09:55 | 39.96259 | 9.21290 | 37975 ft | 438 kts | 341° |
| 2026-04-21 09:55 | 40.02151 | 9.19227 | 37977 ft | 438 kts | 341° |
| 2026-04-21 09:56 | 40.08044 | 9.17160 | 37978 ft | 438 kts | 340° |
| 2026-04-21 09:56 | 40.13892 | 9.15105 | 37976 ft | 438 kts | 340° |
| 2026-04-21 09:57 | 40.19776 | 9.13033 | 37977 ft | 437 kts | 340° |
| 2026-04-21 09:57 | 40.25653 | 9.10960 | 37974 ft | 437 kts | 340° |
| 2026-04-21 09:58 | 40.31526 | 9.08884 | 37972 ft | 437 kts | 340° |
| 2026-04-21 09:58 | 40.37396 | 9.06807 | 37970 ft | 437 kts | 340° |
| 2026-04-21 09:59 | 40.43216 | 9.04743 | 37968 ft | 436 kts | 340° |
| 2026-04-21 09:59 | 40.49072 | 9.02664 | 37971 ft | 436 kts | 340° |
| 2026-04-21 10:00 | 40.54933 | 9.00577 | 37973 ft | 436 kts | 340° |
| 2026-04-21 10:00 | 40.60788 | 8.98490 | 37977 ft | 436 kts | 340° |
| 2026-04-21 10:01 | 40.66596 | 8.96416 | 37963 ft | 436 kts | 340° |
| 2026-04-21 10:01 | 40.72448 | 8.94322 | 37962 ft | 435 kts | 340° |
| 2026-04-21 10:02 | 40.81207 | 8.91181 | 37970 ft | 435 kts | 340° |
| 2026-04-21 10:03 | 40.87001 | 8.89098 | 37959 ft | 435 kts | 340° |
| 2026-04-21 10:03 | 40.92840 | 8.86996 | 37959 ft | 434 kts | 340° |
| 2026-04-21 10:04 | 40.98783 | 8.85394 | 37959 ft | 440 kts | 348° |
| 2026-04-21 10:04 | 41.04940 | 8.85089 | 37949 ft | 444 kts | 354° |
| 2026-04-21 10:05 | 41.11121 | 8.84998 | 37953 ft | 444 kts | 353° |
| 2026-04-21 10:05 | 41.17260 | 8.84908 | 37951 ft | 444 kts | 353° |
| 2026-04-21 10:06 | 41.23415 | 8.84553 | 37948 ft | 439 kts | 347° |
| 2026-04-21 10:06 | 41.29348 | 8.82916 | 37944 ft | 432 kts | 338° |
| 2026-04-21 10:07 | 41.35055 | 8.80436 | 37944 ft | 432 kts | 337° |
| 2026-04-21 10:07 | 41.37903 | 8.79182 | 37532 ft | 433 kts | 340° |
| 2026-04-21 10:07 | 41.40708 | 8.77919 | 37826 ft | 428 kts | 341° |
| 2026-04-21 10:07 | 41.43517 | 8.76661 | 37995 ft | 428 kts | 341° |
| 2026-04-21 10:08 | 41.46352 | 8.75394 | 38000 ft | 431 kts | 341° |
| 2026-04-21 10:08 | 41.52089 | 8.72830 | 38001 ft | 438 kts | 341° |
| 2026-04-21 10:09 | 41.57913 | 8.70222 | 38001 ft | 445 kts | 341° |
| 2026-04-21 10:09 | 41.60844 | 8.68925 | 38386 ft | 441 kts | 337° |
| 2026-04-21 10:09 | 41.63730 | 8.67650 | 37973 ft | 430 kts | 336° |
| 2026-04-21 10:10 | 41.69301 | 8.65147 | 37963 ft | 427 kts | 336° |
| 2026-04-21 10:10 | 41.74956 | 8.62590 | 37963 ft | 431 kts | 336° |
| 2026-04-21 10:11 | 41.80643 | 8.60021 | 37963 ft | 433 kts | 336° |
| 2026-04-21 10:11 | 41.86351 | 8.57440 | 37964 ft | 433 kts | 336° |
| 2026-04-21 10:12 | 41.92064 | 8.54852 | 37967 ft | 433 kts | 336° |
| 2026-04-21 10:12 | 41.97771 | 8.52261 | 37961 ft | 433 kts | 336° |
| 2026-04-21 10:13 | 42.03452 | 8.49677 | 37961 ft | 433 kts | 336° |
| 2026-04-21 10:13 | 42.09158 | 8.47076 | 37951 ft | 433 kts | 336° |
| 2026-04-21 10:14 | 42.14876 | 8.44465 | 37951 ft | 433 kts | 336° |
| 2026-04-21 10:14 | 42.20577 | 8.41856 | 37945 ft | 433 kts | 336° |
| 2026-04-21 10:15 | 42.26293 | 8.39235 | 37944 ft | 433 kts | 336° |
| 2026-04-21 10:15 | 42.31933 | 8.36552 | 37942 ft | 431 kts | 332° |
| 2026-04-21 10:16 | 42.37254 | 8.32913 | 37943 ft | 427 kts | 326° |
| 2026-04-21 10:16 | 42.42454 | 8.29028 | 37940 ft | 427 kts | 327° |
| 2026-04-21 10:17 | 42.47663 | 8.25142 | 37944 ft | 427 kts | 327° |
| 2026-04-21 10:17 | 42.52830 | 8.21264 | 37943 ft | 427 kts | 327° |
| 2026-04-21 10:18 | 42.58029 | 8.17349 | 37945 ft | 427 kts | 327° |
| 2026-04-21 10:18 | 42.63226 | 8.13430 | 37947 ft | 427 kts | 327° |
| 2026-04-21 10:19 | 42.68423 | 8.09502 | 37946 ft | 427 kts | 327° |
| 2026-04-21 10:19 | 42.73615 | 8.05571 | 37948 ft | 427 kts | 327° |
| 2026-04-21 10:20 | 42.78764 | 8.01665 | 37947 ft | 427 kts | 326° |
| 2026-04-21 10:20 | 42.83957 | 7.97718 | 37947 ft | 427 kts | 326° |
| 2026-04-21 10:21 | 42.89142 | 7.93769 | 37942 ft | 427 kts | 326° |
| 2026-04-21 10:21 | 42.94331 | 7.89810 | 37947 ft | 427 kts | 326° |
| 2026-04-21 10:22 | 42.99474 | 7.85878 | 37948 ft | 427 kts | 326° |
| 2026-04-21 10:22 | 43.04657 | 7.81907 | 37948 ft | 427 kts | 326° |
| 2026-04-21 10:23 | 43.09841 | 7.77927 | 37943 ft | 427 kts | 326° |
| 2026-04-21 10:23 | 43.15016 | 7.73932 | 37937 ft | 427 kts | 326° |
| 2026-04-21 10:24 | 43.20150 | 7.69959 | 37938 ft | 427 kts | 326° |
| 2026-04-21 10:24 | 43.25321 | 7.65952 | 37942 ft | 427 kts | 326° |
| 2026-04-21 10:25 | 43.30493 | 7.61937 | 37934 ft | 427 kts | 326° |
| 2026-04-21 10:25 | 43.35669 | 7.57911 | 37932 ft | 427 kts | 326° |
| 2026-04-21 10:26 | 43.40808 | 7.53905 | 37933 ft | 427 kts | 326° |
| 2026-04-21 10:26 | 43.45976 | 7.49869 | 37940 ft | 427 kts | 326° |
| 2026-04-21 10:27 | 43.51146 | 7.45824 | 37936 ft | 428 kts | 326° |
| 2026-04-21 10:27 | 43.56317 | 7.41769 | 37935 ft | 428 kts | 326° |
| 2026-04-21 10:28 | 43.61487 | 7.37705 | 37939 ft | 427 kts | 326° |
| 2026-04-21 10:28 | 43.66389 | 7.33214 | 37938 ft | 425 kts | 322° |
| 2026-04-21 10:29 | 43.71335 | 7.28731 | 37941 ft | 425 kts | 323° |
| 2026-04-21 10:29 | 43.76280 | 7.24253 | 37941 ft | 426 kts | 323° |
| 2026-04-21 10:30 | 43.81215 | 7.19730 | 37932 ft | 426 kts | 323° |
| 2026-04-21 10:30 | 43.85827 | 7.15485 | 37929 ft | 426 kts | 322° |
| 2026-04-21 10:31 | 43.90728 | 7.10963 | 37926 ft | 426 kts | 322° |
| 2026-04-21 10:31 | 43.95659 | 7.06405 | 37920 ft | 426 kts | 323° |
| 2026-04-21 10:32 | 44.00590 | 7.01838 | 37912 ft | 426 kts | 322° |
| 2026-04-21 10:32 | 44.05535 | 6.97248 | 37907 ft | 427 kts | 322° |
| 2026-04-21 10:33 | 44.10471 | 6.92659 | 37914 ft | 427 kts | 323° |
| 2026-04-21 10:33 | 44.15410 | 6.88058 | 37913 ft | 427 kts | 322° |
| 2026-04-21 10:34 | 44.20307 | 6.83482 | 37911 ft | 427 kts | 322° |
| 2026-04-21 10:34 | 44.25242 | 6.78865 | 37913 ft | 428 kts | 322° |
| 2026-04-21 10:35 | 44.30178 | 6.74233 | 37913 ft | 427 kts | 322° |
| 2026-04-21 10:35 | 44.35112 | 6.69593 | 37918 ft | 428 kts | 322° |
| 2026-04-21 10:36 | 44.40011 | 6.64977 | 37919 ft | 427 kts | 322° |
| 2026-04-21 10:36 | 44.44942 | 6.60323 | 37922 ft | 427 kts | 322° |
| 2026-04-21 10:37 | 44.49877 | 6.55656 | 37935 ft | 428 kts | 322° |
| 2026-04-21 10:37 | 44.54804 | 6.50986 | 37925 ft | 428 kts | 322° |
| 2026-04-21 10:38 | 44.59710 | 6.46330 | 37934 ft | 430 kts | 322° |
| 2026-04-21 10:38 | 44.64658 | 6.41624 | 37942 ft | 429 kts | 322° |
| 2026-04-21 10:39 | 44.68495 | 6.37968 | 37944 ft | 428 kts | 322° |
| 2026-04-21 10:39 | 44.72981 | 6.33685 | 37947 ft | 427 kts | 322° |
| 2026-04-21 10:40 | 44.77910 | 6.28969 | 37952 ft | 429 kts | 322° |
| 2026-04-21 10:40 | 44.82838 | 6.24246 | 37955 ft | 428 kts | 322° |
| 2026-04-21 10:41 | 44.87733 | 6.19546 | 37943 ft | 425 kts | 322° |
| 2026-04-21 10:41 | 44.92581 | 6.14877 | 37952 ft | 423 kts | 322° |
| 2026-04-21 10:42 | 44.97275 | 6.10348 | 37958 ft | 425 kts | 321° |
| 2026-04-21 10:42 | 45.02163 | 6.05621 | 37963 ft | 427 kts | 322° |
| 2026-04-21 10:43 | 45.07049 | 6.00893 | 37967 ft | 424 kts | 322° |
| 2026-04-21 10:43 | 45.11872 | 5.96213 | 37970 ft | 424 kts | 322° |
| 2026-04-21 10:44 | 45.16732 | 5.91480 | 37983 ft | 426 kts | 322° |
| 2026-04-21 10:44 | 45.21618 | 5.86717 | 37979 ft | 426 kts | 322° |
| 2026-04-21 10:45 | 45.26503 | 5.81946 | 37984 ft | 426 kts | 322° |
| 2026-04-21 10:45 | 45.31351 | 5.77201 | 37986 ft | 426 kts | 322° |
| 2026-04-21 10:46 | 45.36098 | 5.72543 | 38002 ft | 426 kts | 322° |
| 2026-04-21 10:46 | 45.40971 | 5.67753 | 38007 ft | 426 kts | 322° |
| 2026-04-21 10:47 | 45.44206 | 5.64567 | 38008 ft | 426 kts | 322° |
| 2026-04-21 10:47 | 45.49090 | 5.59749 | 38013 ft | 426 kts | 322° |
| 2026-04-21 10:48 | 45.53934 | 5.54960 | 38013 ft | 426 kts | 322° |
| 2026-04-21 10:48 | 45.58854 | 5.50223 | 38013 ft | 427 kts | 324° |
| 2026-04-21 10:49 | 45.63927 | 5.45777 | 38016 ft | 428 kts | 324° |
| 2026-04-21 10:49 | 45.68985 | 5.41313 | 38016 ft | 428 kts | 324° |
| 2026-04-21 10:50 | 45.74001 | 5.36828 | 38022 ft | 428 kts | 324° |
| 2026-04-21 10:50 | 45.79051 | 5.32290 | 38019 ft | 428 kts | 324° |
| 2026-04-21 10:51 | 45.84087 | 5.27756 | 38021 ft | 428 kts | 324° |
| 2026-04-21 10:51 | 45.89136 | 5.23202 | 38023 ft | 428 kts | 324° |
| 2026-04-21 10:52 | 45.94143 | 5.18675 | 38024 ft | 429 kts | 324° |
| 2026-04-21 10:52 | 45.99186 | 5.14106 | 38025 ft | 429 kts | 324° |
| 2026-04-21 10:53 | 46.04265 | 5.09598 | 38026 ft | 431 kts | 327° |
| 2026-04-21 10:53 | 46.09733 | 5.05959 | 38028 ft | 434 kts | 332° |
| 2026-04-21 10:54 | 46.15250 | 5.02434 | 38030 ft | 434 kts | 332° |
| 2026-04-21 10:54 | 46.20726 | 4.98926 | 38031 ft | 434 kts | 332° |
| 2026-04-21 10:55 | 46.26246 | 4.95393 | 38034 ft | 434 kts | 332° |
| 2026-04-21 10:55 | 46.31772 | 4.91854 | 38033 ft | 434 kts | 332° |
| 2026-04-21 10:56 | 46.35862 | 4.89229 | 38032 ft | 434 kts | 332° |
| 2026-04-21 10:56 | 46.41384 | 4.85678 | 38032 ft | 435 kts | 332° |
| 2026-04-21 10:57 | 46.46884 | 4.82133 | 38033 ft | 435 kts | 332° |
| 2026-04-21 10:57 | 46.52416 | 4.78559 | 38033 ft | 435 kts | 332° |
| 2026-04-21 10:58 | 46.57951 | 4.74976 | 38039 ft | 436 kts | 332° |
| 2026-04-21 10:58 | 46.63431 | 4.71420 | 38042 ft | 436 kts | 331° |
| 2026-04-21 10:59 | 46.68974 | 4.67815 | 38040 ft | 437 kts | 331° |
| 2026-04-21 10:59 | 46.74494 | 4.64217 | 38041 ft | 437 kts | 331° |
| 2026-04-21 11:00 | 46.80047 | 4.60590 | 38043 ft | 437 kts | 331° |
| 2026-04-21 11:00 | 46.85604 | 4.56966 | 38044 ft | 438 kts | 332° |
| 2026-04-21 11:01 | 46.91171 | 4.53353 | 38046 ft | 438 kts | 332° |
| 2026-04-21 11:01 | 46.96711 | 4.49744 | 38044 ft | 438 kts | 332° |
| 2026-04-21 11:02 | 47.05067 | 4.44283 | 38051 ft | 439 kts | 332° |
| 2026-04-21 11:02 | 47.10656 | 4.40619 | 38057 ft | 440 kts | 332° |
| 2026-04-21 11:03 | 47.16226 | 4.36959 | 38059 ft | 440 kts | 332° |
| 2026-04-21 11:03 | 47.21782 | 4.33301 | 38059 ft | 440 kts | 331° |
| 2026-04-21 11:04 | 47.27369 | 4.29613 | 38064 ft | 440 kts | 331° |
| 2026-04-21 11:04 | 47.32954 | 4.25919 | 38067 ft | 440 kts | 331° |
| 2026-04-21 11:05 | 47.36019 | 4.23888 | 38074 ft | 440 kts | 331° |
| 2026-04-21 11:05 | 47.41581 | 4.20195 | 38073 ft | 441 kts | 332° |
| 2026-04-21 11:06 | 47.47170 | 4.16474 | 38091 ft | 440 kts | 332° |
| 2026-04-21 11:06 | 47.52678 | 4.12796 | 38081 ft | 432 kts | 332° |
| 2026-04-21 11:07 | 47.58176 | 4.09121 | 38088 ft | 434 kts | 332° |
| 2026-04-21 11:07 | 47.63584 | 4.05507 | 38094 ft | 434 kts | 332° |
| 2026-04-21 11:08 | 47.68487 | 4.02224 | 38092 ft | 434 kts | 332° |
| 2026-04-21 11:08 | 47.73946 | 3.98559 | 38097 ft | 434 kts | 332° |
| 2026-04-21 11:09 | 47.79443 | 3.94859 | 38103 ft | 434 kts | 332° |
| 2026-04-21 11:09 | 47.84936 | 3.91154 | 38108 ft | 434 kts | 332° |
| 2026-04-21 11:10 | 47.90427 | 3.87441 | 38116 ft | 434 kts | 332° |
| 2026-04-21 11:10 | 47.95890 | 3.83739 | 38119 ft | 434 kts | 332° |
| 2026-04-21 11:11 | 48.01379 | 3.80009 | 38123 ft | 434 kts | 332° |
| 2026-04-21 11:11 | 48.06867 | 3.76273 | 38132 ft | 433 kts | 332° |
| 2026-04-21 11:12 | 48.12302 | 3.72369 | 38140 ft | 432 kts | 327° |
| 2026-04-21 11:12 | 48.17168 | 3.67271 | 38145 ft | 429 kts | 317° |
| 2026-04-21 11:13 | 48.21379 | 3.60977 | 38140 ft | 428 kts | 311° |
| 2026-04-21 11:13 | 48.25431 | 3.54429 | 38142 ft | 428 kts | 311° |
| 2026-04-21 11:14 | 48.29479 | 3.47864 | 38144 ft | 428 kts | 311° |
| 2026-04-21 11:14 | 48.33484 | 3.41322 | 38142 ft | 428 kts | 311° |
| 2026-04-21 11:15 | 48.37398 | 3.34986 | 38147 ft | 429 kts | 314° |
| 2026-04-21 11:15 | 48.42066 | 3.29369 | 38151 ft | 432 kts | 325° |
| 2026-04-21 11:16 | 48.47387 | 3.25241 | 38154 ft | 436 kts | 334° |
| 2026-04-21 11:16 | 48.52976 | 3.21678 | 38158 ft | 436 kts | 334° |
| 2026-04-21 11:17 | 48.58543 | 3.18098 | 38160 ft | 436 kts | 334° |
| 2026-04-21 11:17 | 48.64129 | 3.14510 | 38167 ft | 436 kts | 334° |
| 2026-04-21 11:18 | 48.69680 | 3.10941 | 38165 ft | 436 kts | 334° |
| 2026-04-21 11:18 | 48.75266 | 3.07340 | 38170 ft | 436 kts | 334° |
| 2026-04-21 11:19 | 48.80852 | 3.03730 | 38171 ft | 436 kts | 334° |
| 2026-04-21 11:19 | 48.86323 | 2.99771 | 38174 ft | 434 kts | 327° |
| 2026-04-21 11:20 | 48.90666 | 2.95944 | 38187 ft | 435 kts | 328° |
| 2026-04-21 11:20 | 48.96769 | 2.90635 | 38187 ft | 435 kts | 328° |
| 2026-04-21 11:21 | 49.02018 | 2.86041 | 38176 ft | 435 kts | 328° |
| 2026-04-21 11:21 | 49.07074 | 2.81596 | 38184 ft | 435 kts | 328° |
| 2026-04-21 11:22 | 49.11437 | 2.77751 | 38191 ft | 436 kts | 328° |
| 2026-04-21 11:22 | 49.17538 | 2.72362 | 38183 ft | 436 kts | 328° |
| 2026-04-21 11:23 | 49.22783 | 2.67716 | 38195 ft | 436 kts | 328° |
| 2026-04-21 11:23 | 49.27142 | 2.63847 | 38190 ft | 436 kts | 328° |
| 2026-04-21 11:24 | 49.32387 | 2.59180 | 38193 ft | 436 kts | 328° |
| 2026-04-21 11:24 | 49.37633 | 2.54501 | 38208 ft | 436 kts | 328° |
| 2026-04-21 11:25 | 49.43741 | 2.49037 | 38200 ft | 437 kts | 328° |
| 2026-04-21 11:25 | 49.48094 | 2.45134 | 38223 ft | 437 kts | 328° |
| 2026-04-21 11:26 | 49.53107 | 2.39858 | 38202 ft | 436 kts | 320° |
| 2026-04-21 11:26 | 49.58314 | 2.32963 | 38228 ft | 436 kts | 319° |
| 2026-04-21 11:27 | 49.62253 | 2.27769 | 38211 ft | 436 kts | 319° |
| 2026-04-21 11:27 | 49.66852 | 2.21664 | 38218 ft | 436 kts | 318° |
| 2026-04-21 11:28 | 49.70863 | 2.16312 | 38234 ft | 436 kts | 318° |
| 2026-04-21 11:28 | 49.75452 | 2.10171 | 38238 ft | 437 kts | 318° |
| 2026-04-21 11:29 | 49.80042 | 2.04014 | 38235 ft | 437 kts | 318° |
| 2026-04-21 11:29 | 49.84627 | 1.97847 | 38226 ft | 437 kts | 318° |
| 2026-04-21 11:30 | 49.89181 | 1.91707 | 38225 ft | 437 kts | 318° |
| 2026-04-21 11:30 | 49.93773 | 1.85499 | 38231 ft | 437 kts | 318° |
| 2026-04-21 11:31 | 49.98364 | 1.79276 | 38253 ft | 438 kts | 318° |
| 2026-04-21 11:31 | 50.02949 | 1.73045 | 38257 ft | 438 kts | 318° |
| 2026-04-21 11:32 | 50.07505 | 1.66838 | 38242 ft | 439 kts | 318° |
| 2026-04-21 11:32 | 50.12114 | 1.60587 | 38244 ft | 439 kts | 318° |
| 2026-04-21 11:33 | 50.16717 | 1.54344 | 38246 ft | 439 kts | 318° |
| 2026-04-21 11:33 | 50.21288 | 1.48121 | 38252 ft | 439 kts | 318° |
| 2026-04-21 11:34 | 50.25893 | 1.41835 | 38253 ft | 440 kts | 318° |
| 2026-04-21 11:34 | 50.30492 | 1.35539 | 38257 ft | 440 kts | 318° |
| 2026-04-21 11:35 | 50.35093 | 1.29223 | 38255 ft | 440 kts | 318° |
| 2026-04-21 11:35 | 50.39667 | 1.22927 | 38260 ft | 440 kts | 318° |
| 2026-04-21 11:36 | 50.44261 | 1.16586 | 38279 ft | 441 kts | 318° |
| 2026-04-21 11:36 | 50.48860 | 1.10222 | 38266 ft | 441 kts | 318° |
| 2026-04-21 11:37 | 50.53486 | 1.03906 | 38268 ft | 441 kts | 320° |
| 2026-04-21 11:37 | 50.58308 | 0.98023 | 38273 ft | 441 kts | 322° |
| 2026-04-21 11:38 | 50.63166 | 0.92102 | 38279 ft | 442 kts | 321° |
| 2026-04-21 11:38 | 50.67999 | 0.86112 | 38286 ft | 442 kts | 321° |
| 2026-04-21 11:39 | 50.72824 | 0.80094 | 38287 ft | 442 kts | 321° |
| 2026-04-21 11:39 | 50.77649 | 0.74060 | 38289 ft | 443 kts | 321° |
| 2026-04-21 11:40 | 50.82437 | 0.68057 | 38291 ft | 443 kts | 321° |
| 2026-04-21 11:40 | 50.87262 | 0.61992 | 38289 ft | 443 kts | 321° |
| 2026-04-21 11:41 | 50.92083 | 0.55914 | 38304 ft | 443 kts | 321° |
| 2026-04-21 11:41 | 50.94497 | 0.52866 | 38451 ft | 443 kts | 321° |
| 2026-04-21 11:41 | 50.96903 | 0.49818 | 38482 ft | 443 kts | 321° |
| 2026-04-21 11:42 | 51.01690 | 0.43739 | 38528 ft | 443 kts | 321° |
| 2026-04-21 11:42 | 51.06503 | 0.37611 | 38573 ft | 444 kts | 320° |
| 2026-04-21 11:43 | 51.11309 | 0.31479 | 38604 ft | 444 kts | 320° |
| 2026-04-21 11:43 | 51.16128 | 0.25318 | 38604 ft | 444 kts | 320° |
| 2026-04-21 11:44 | 51.20948 | 0.19139 | 38558 ft | 445 kts | 320° |
| 2026-04-21 11:44 | 51.23362 | 0.16036 | 38284 ft | 444 kts | 320° |
| 2026-04-21 11:44 | 51.25747 | 0.12968 | 38063 ft | 437 kts | 320° |
| 2026-04-21 11:45 | 51.28091 | 0.09948 | 37565 ft | 431 kts | 320° |
| 2026-04-21 11:45 | 51.30268 | 0.06792 | 36995 ft | 425 kts | 312° |
| 2026-04-21 11:45 | 51.32096 | 0.03124 | 36438 ft | 420 kts | 304° |
| 2026-04-21 11:45 | 51.33526 | -0.00903 | 35892 ft | 416 kts | 296° |
| 2026-04-21 11:46 | 51.34548 | -0.05211 | 35361 ft | 413 kts | 288° |
| 2026-04-21 11:46 | 51.35280 | -0.09617 | 34829 ft | 408 kts | 288° |
| 2026-04-21 11:46 | 51.36013 | -0.13971 | 34306 ft | 403 kts | 288° |
| 2026-04-21 11:46 | 51.36743 | -0.18276 | 33700 ft | 399 kts | 288° |
| 2026-04-21 11:47 | 51.37458 | -0.22514 | 33157 ft | 392 kts | 288° |
| 2026-04-21 11:47 | 51.38164 | -0.26725 | 32516 ft | 389 kts | 288° |
| 2026-04-21 11:47 | 51.38851 | -0.30840 | 31865 ft | 387 kts | 288° |
| 2026-04-21 11:47 | 51.39544 | -0.35009 | 31203 ft | 388 kts | 288° |
| 2026-04-21 11:48 | 51.40233 | -0.39168 | 30743 ft | 385 kts | 288° |
| 2026-04-21 11:48 | 51.40917 | -0.43308 | 30230 ft | 381 kts | 288° |
| 2026-04-21 11:48 | 51.41588 | -0.47384 | 29646 ft | 378 kts | 288° |
| 2026-04-21 11:48 | 51.42256 | -0.51451 | 29061 ft | 376 kts | 288° |
| 2026-04-21 11:49 | 51.42918 | -0.55484 | 28470 ft | 374 kts | 288° |
| 2026-04-21 11:49 | 51.43576 | -0.59505 | 27855 ft | 372 kts | 288° |
| 2026-04-21 11:49 | 51.44229 | -0.63505 | 27274 ft | 370 kts | 288° |
| 2026-04-21 11:49 | 51.44878 | -0.67491 | 26692 ft | 368 kts | 287° |
| 2026-04-21 11:50 | 51.45514 | -0.71406 | 26089 ft | 367 kts | 287° |
| 2026-04-21 11:50 | 51.46153 | -0.75351 | 25473 ft | 365 kts | 287° |
| 2026-04-21 11:50 | 51.46785 | -0.79261 | 24882 ft | 362 kts | 287° |
| 2026-04-21 11:50 | 51.47412 | -0.83152 | 24332 ft | 358 kts | 287° |
| 2026-04-21 11:51 | 51.48034 | -0.87014 | 23777 ft | 356 kts | 287° |
| 2026-04-21 11:51 | 51.48650 | -0.90849 | 23060 ft | 356 kts | 287° |
| 2026-04-21 11:51 | 51.49257 | -0.94635 | 22511 ft | 351 kts | 287° |
| 2026-04-21 11:51 | 51.49868 | -0.98449 | 22351 ft | 362 kts | 287° |
| 2026-04-21 11:52 | 51.50501 | -1.02400 | 22316 ft | 368 kts | 287° |
| 2026-04-21 11:52 | 51.51133 | -1.06375 | 22317 ft | 366 kts | 287° |
| 2026-04-21 11:52 | 51.51761 | -1.10340 | 22320 ft | 366 kts | 287° |
| 2026-04-21 11:52 | 51.52389 | -1.14308 | 22319 ft | 366 kts | 287° |
| 2026-04-21 11:53 | 51.52945 | -1.18300 | 22328 ft | 367 kts | 283° |
| 2026-04-21 11:53 | 51.53413 | -1.22332 | 22041 ft | 368 kts | 283° |
| 2026-04-21 11:53 | 51.53897 | -1.26396 | 21234 ft | 375 kts | 283° |
| 2026-04-21 11:53 | 51.54402 | -1.30605 | 20014 ft | 390 kts | 283° |
| 2026-04-21 11:54 | 51.54912 | -1.34896 | 19274 ft | 391 kts | 283° |
| 2026-04-21 11:54 | 51.55404 | -1.39088 | 18889 ft | 381 kts | 283° |
| 2026-04-21 11:54 | 51.55883 | -1.43205 | 18630 ft | 369 kts | 283° |
| 2026-04-21 11:54 | 51.56355 | -1.47251 | 17796 ft | 372 kts | 283° |
| 2026-04-21 11:55 | 51.56833 | -1.51333 | 17220 ft | 369 kts | 282° |
| 2026-04-21 11:55 | 51.57299 | -1.55341 | 16938 ft | 365 kts | 282° |
| 2026-04-21 11:55 | 51.57769 | -1.59387 | 16646 ft | 369 kts | 282° |
| 2026-04-21 11:55 | 51.58242 | -1.63452 | 16072 ft | 373 kts | 282° |
| 2026-04-21 11:56 | 51.58638 | -1.67619 | 15261 ft | 380 kts | 277° |
| 2026-04-21 11:56 | 51.58936 | -1.71819 | 14846 ft | 373 kts | 277° |
| 2026-04-21 11:56 | 51.59229 | -1.75845 | 14452 ft | 365 kts | 277° |
| 2026-04-21 11:56 | 51.59530 | -1.79928 | 13712 ft | 369 kts | 277° |
| 2026-04-21 11:57 | 51.59826 | -1.83993 | 13276 ft | 362 kts | 277° |
| 2026-04-21 11:57 | 51.59880 | -1.87982 | 12899 ft | 354 kts | 262° |
| 2026-04-21 11:57 | 51.59194 | -1.91749 | 12535 ft | 353 kts | 243° |
| 2026-04-21 11:57 | 51.57917 | -1.95148 | 12181 ft | 358 kts | 236° |
| 2026-04-21 11:58 | 51.56570 | -1.98504 | 11823 ft | 360 kts | 235° |
| 2026-04-21 11:58 | 51.55213 | -2.01885 | 11464 ft | 356 kts | 236° |
| 2026-04-21 11:58 | 51.53884 | -2.05202 | 11117 ft | 351 kts | 236° |
| 2026-04-21 11:58 | 51.52674 | -2.08528 | 10771 ft | 351 kts | 243° |
| 2026-04-21 11:59 | 51.51763 | -2.12253 | 10431 ft | 355 kts | 250° |
| 2026-04-21 11:59 | 51.51303 | -2.16073 | 10075 ft | 356 kts | 269° |
| 2026-04-21 11:59 | 51.51398 | -2.20040 | 9695 ft | 354 kts | 273° |
| 2026-04-21 11:59 | 51.51443 | -2.23979 | 9325 ft | 353 kts | 269° |
| 2026-04-21 12:00 | 51.51379 | -2.27895 | 8949 ft | 349 kts | 268° |
| 2026-04-21 12:00 | 51.51309 | -2.31771 | 8581 ft | 347 kts | 268° |
| 2026-04-21 12:00 | 51.51242 | -2.35632 | 8215 ft | 344 kts | 268° |
| 2026-04-21 12:00 | 51.51178 | -2.39465 | 7859 ft | 343 kts | 268° |
| 2026-04-21 12:01 | 51.51116 | -2.43284 | 7505 ft | 340 kts | 268° |
| 2026-04-21 12:01 | 51.51056 | -2.47009 | 7159 ft | 339 kts | 268° |
| 2026-04-21 12:01 | 51.50997 | -2.50787 | 6807 ft | 339 kts | 268° |
| 2026-04-21 12:01 | 51.50938 | -2.54567 | 6437 ft | 337 kts | 268° |
| 2026-04-21 12:02 | 51.50875 | -2.58292 | 6070 ft | 331 kts | 268° |
| 2026-04-21 12:02 | 51.50751 | -2.65555 | 5342 ft | 319 kts | 268° |
| 2026-04-21 12:02 | 51.50681 | -2.69088 | 4989 ft | 314 kts | 268° |
| 2026-04-21 12:03 | 51.50608 | -2.72564 | 4619 ft | 309 kts | 268° |
| 2026-04-21 12:03 | 51.50524 | -2.75959 | 4241 ft | 298 kts | 268° |
| 2026-04-21 12:03 | 51.50432 | -2.79172 | 3877 ft | 287 kts | 268° |
| 2026-04-21 12:03 | 51.50324 | -2.82313 | 3522 ft | 278 kts | 268° |
| 2026-04-21 12:04 | 51.50205 | -2.85401 | 3161 ft | 276 kts | 268° |
| 2026-04-21 12:04 | 51.50053 | -2.88467 | 2794 ft | 276 kts | 259° |
| 2026-04-21 12:04 | 51.49297 | -2.91253 | 2431 ft | 273 kts | 230° |
| 2026-04-21 12:04 | 51.47857 | -2.93144 | 2111 ft | 265 kts | 203° |
| 2026-04-21 12:05 | 51.46185 | -2.94157 | 2006 ft | 250 kts | 190° |
| 2026-04-21 12:05 | 51.44551 | -2.94856 | 2002 ft | 236 kts | 189° |
| 2026-04-21 12:05 | 51.42918 | -2.95457 | 1999 ft | 243 kts | 179° |
| 2026-04-21 12:05 | 51.41289 | -2.95470 | 1999 ft | 226 kts | 173° |
| 2026-04-21 12:06 | 51.39787 | -2.95425 | 1995 ft | 211 kts | 171° |
| 2026-04-21 12:06 | 51.38511 | -2.94700 | 2004 ft | 193 kts | 132° |
| 2026-04-21 12:06 | 51.37811 | -2.93048 | 2004 ft | 171 kts | 104° |
| 2026-04-21 12:06 | 51.37599 | -2.91297 | 1995 ft | 149 kts | 90° |
| 2026-04-21 12:07 | 51.37596 | -2.89753 | 1991 ft | 133 kts | 85° |
| 2026-04-21 12:07 | 51.37648 | -2.88203 | 1997 ft | 145 kts | 84° |
| 2026-04-21 12:07 | 51.37703 | -2.86634 | 1995 ft | 134 kts | 84° |
| 2026-04-21 12:07 | 51.37758 | -2.85239 | 2003 ft | 118 kts | 84° |
| 2026-04-21 12:08 | 51.37802 | -2.84030 | 1994 ft | 108 kts | 84° |
| 2026-04-21 12:08 | 51.37852 | -2.82742 | 1898 ft | 123 kts | 85° |
| 2026-04-21 12:08 | 51.37907 | -2.81389 | 1726 ft | 120 kts | 84° |
| 2026-04-21 12:08 | 51.37953 | -2.80127 | 1532 ft | 109 kts | 84° |
| 2026-04-21 12:09 | 51.38002 | -2.78871 | 1383 ft | 115 kts | 84° |
| 2026-04-21 12:09 | 51.38051 | -2.77581 | 1221 ft | 117 kts | 84° |
| 2026-04-21 12:09 | 51.38100 | -2.76270 | 1057 ft | 119 kts | 83° |
| 2026-04-21 12:09 | 51.38147 | -2.74921 | 833 ft | 124 kts | 83° |
| 2026-04-21 12:10 | 51.38200 | -2.73553 | 661 ft | 120 kts | 83° |
| 2026-04-21 12:10 | 51.38249 | -2.72272 | 620 ft | 107 kts | 84° |
| 2026-04-21 12:10 | 51.38297 | -2.71369 | 624 ft | 48 kts | 87° |
| 2026-04-21 12:10 | 51.38310 | -2.70964 | 614 ft | 34 kts | 84° |
| 2026-04-21 12:11 | 51.38378 | -2.70734 | 610 ft | 19 kts | 8° |
| 2026-04-21 12:11 | 51.38496 | -2.70717 | 620 ft | 12 kts | 317° |
| 2026-04-21 12:11 | 51.38481 | -2.70757 | 618 ft | 5 kts | 238° |
| 2026-04-21 12:11 | 51.38469 | -2.70837 | 616 ft | 12 kts | 260° |
| 2026-04-21 12:12 | 51.38462 | -2.71028 | 611 ft | 23 kts | 266° |
| 2026-04-21 12:12 | 51.38448 | -2.71333 | 613 ft | 32 kts | 266° |
| 2026-04-21 12:12 | 51.38436 | -2.71717 | 624 ft | 29 kts | 266° |
| 2026-04-21 12:12 | 51.38502 | -2.71898 | 623 ft | 17 kts | 22° |
| 2026-04-21 12:13 | 51.38567 | -2.71787 | 620 ft | 11 kts | 86° |
| 2026-04-21 12:13 | 51.38568 | -2.71764 | 620 ft | 0 kts | 87° |
| 2026-04-21 12:13 | 51.38568 | -2.71760 | 619 ft | 2 kts | 87° |
| 2026-04-21 12:13 | 51.38568 | -2.71759 | 618 ft | 0 kts | 87° |